Airfield :
LOGIN :

Register | Disclaimer

   EN    FR    IT 

 










Legend :    VFR   Marginal VFR   IFR   Intensive IFR   Very Intensive IFR
Visi :
Ceiling :
>= 8 km
>= 3000ft
5 to 8 km
1000 to 3000 ft
1500m to 5 km
500 to 1000 ft
800 to 1500m
200 to 500 ft
< 800m
< 200 ft
Symbols :   Thunderstorms  Fog  Heavy snow  Heavy precipitations  Wind > 20 kt
SIGMETs :     Misc.  Thunderstorms  Icing  Turbulence  Mountain Waves  Volcanic Ashes






- Airport Elevation : 120 ft
- IATA code : MME


EGNV - Durham Tees valley

CURRENT METAR :
  • 231750Z 20015KT 9999 BKN045 11/06 Q1018

EXPIRED METARs :
  • 231720Z 18012KT 9999 BKN028 11/06 Q1018
  • 231650Z 18009KT 9999 BKN027 12/07 Q1018
  • 231620Z 18015KT 9999 SCT031 BKN042 12/07 Q1018
  • 231550Z 19013KT 9999 FEW026 SCT033 BKN042 12/07 Q1018
  • 231520Z 18012KT 9999 FEW026 BKN042 12/07 Q1018

TAF TAF EGNV
Valid from the 23 at 18:00 until the 23 at 21:00 UTC


231701Z 2318/2321 18010KT 9999 SCT045
PROB30
TEMPO 2318/2321 19015G25KT
ATIS : +44 9012 018 111



MET'MAP, your aeronautical weather chart ! - Copyright ORBIFLY December 2007 - Disclaimer

ORBIFLY MET'MAP TEAM :

Programming & Development : Alexandra Zaïnal
Concept & original design : Baudouin d'Aumeries
Assistance for programming : Marc-Olivier Méhu
Technical & hardware support : Manuel Goepfert

Contact : metmap@orbifly.com




SOURCES & CREDITS :

   NOAA